Time;durP1;ratioP1;P1;durP2;ratioP2;P2;SDS_P1;SDS_P2;PMS_P1;PMS_P2;Temp;Humidity;BMP_temperature;BMP_pressure;BME280_temperature;BME280_humidity;BME280_pressure;Samples;Min_cycle;Max_cycle;Signal;HPM_P1;HPM_P2
2023/10/31 00:01:07;;;;;;;3.20;0.60;;;14.80;91.90;;;;;;7404752;19;19921;-73
2023/10/31 00:03:33;;;;;;;2.47;0.60;;;14.90;89.80;;;;;;7405087;19;19918;-72
2023/10/31 00:05:59;;;;;;;1.50;0.50;;;15.00;87.90;;;;;;7404791;19;20329;-73
2023/10/31 00:08:25;;;;;;;2.35;0.60;;;15.00;86.80;;;;;;7401258;19;19926;-71
2023/10/31 00:10:50;;;;;;;4.18;0.60;;;14.90;86.40;;;;;;7403152;19;19982;-71
2023/10/31 00:13:16;;;;;;;3.65;0.70;;;15.10;78.60;;;;;;7401598;19;20452;-71
2023/10/31 00:15:42;;;;;;;2.45;0.40;;;15.10;81.10;;;;;;7403527;19;19942;-71
2023/10/31 00:18:08;;;;;;;2.70;0.68;;;15.20;78.40;;;;;;7401756;19;19927;-71
2023/10/31 00:20:34;;;;;;;4.82;0.70;;;15.10;78.70;;;;;;7401413;19;19914;-71
2023/10/31 00:23:01;;;;;;;2.88;0.52;;;15.10;80.40;;;;;;7403184;19;19934;-72
2023/10/31 00:25:27;;;;;;;2.45;0.60;;;15.10;80.60;;;;;;7400938;19;20446;-71
2023/10/31 00:27:52;;;;;;;1.42;0.45;;;15.00;81.50;;;;;;7403672;19;19946;-72
2023/10/31 00:30:18;;;;;;;3.47;0.70;;;14.90;83.80;;;;;;7401813;19;19928;-71
2023/10/31 00:32:44;;;;;;;1.90;0.60;;;14.90;82.50;;;;;;7402940;19;19915;-72
2023/10/31 00:35:12;;;;;;;3.50;0.73;;;14.90;83.50;;;;;;7403027;19;20040;-72
2023/10/31 00:37:41;;;;;;;2.08;0.60;;;14.80;83.70;;;;;;7405422;19;19923;-72
2023/10/31 00:40:10;;;;;;;3.55;0.60;;;14.90;83.30;;;;;;7405618;19;19911;-71
2023/10/31 00:42:37;;;;;;;2.88;0.50;;;14.90;80.70;;;;;;7400780;19;19961;-71
2023/10/31 00:45:03;;;;;;;2.22;0.43;;;15.00;78.70;;;;;;7405832;19;19983;-73
2023/10/31 00:47:29;;;;;;;1.55;0.50;;;15.00;77.90;;;;;;7404258;19;19914;-72
2023/10/31 00:49:55;;;;;;;1.50;0.40;;;15.10;77.00;;;;;;7392172;19;19954;-71
2023/10/31 00:52:21;;;;;;;1.35;0.30;;;15.00;75.90;;;;;;7397528;19;19965;-71
2023/10/31 00:54:46;;;;;;;2.88;0.50;;;15.10;75.60;;;;;;7399862;19;20374;-71
2023/10/31 00:57:12;;;;;;;1.65;0.47;;;15.00;76.90;;;;;;7404338;19;20247;-72
2023/10/31 00:59:39;;;;;;;2.70;0.70;;;15.00;77.00;;;;;;7406971;19;20248;-72
2023/10/31 01:02:05;;;;;;;1.33;0.60;;;15.00;76.50;;;;;;7403141;19;20074;-71
2023/10/31 01:04:31;;;;;;;1.92;0.50;;;15.10;72.70;;;;;;7407942;19;19923;-72
2023/10/31 01:06:57;;;;;;;5.72;0.50;;;15.00;74.20;;;;;;7409218;19;19931;-72
2023/10/31 01:09:23;;;;;;;1.65;0.47;;;15.00;75.00;;;;;;7407982;19;19926;-72
2023/10/31 01:11:49;;;;;;;3.15;0.82;;;15.00;74.10;;;;;;7411102;19;19914;-71
2023/10/31 01:14:14;;;;;;;3.17;0.73;;;14.90;75.30;;;;;;7395811;19;20218;-71
2023/10/31 01:16:41;;;;;;;2.13;0.38;;;14.90;75.50;;;;;;7398664;19;19927;-72
2023/10/31 01:19:07;;;;;;;2.72;0.50;;;14.90;74.00;;;;;;7398096;19;19914;-71
2023/10/31 01:21:33;;;;;;;1.80;0.52;;;14.90;74.00;;;;;;7402982;19;19941;-72
2023/10/31 01:23:59;;;;;;;4.47;0.30;;;14.90;72.60;;;;;;7399016;19;19926;-71
2023/10/31 01:26:25;;;;;;;1.52;0.40;;;14.90;72.90;;;;;;7397254;19;19922;-72
2023/10/31 01:28:52;;;;;;;2.30;0.30;;;14.90;71.40;;;;;;7398693;19;19930;-72
2023/10/31 01:31:18;;;;;;;1.95;0.40;;;14.90;72.00;;;;;;7397073;19;19918;-72
2023/10/31 01:33:43;;;;;;;2.30;0.50;;;14.80;71.80;;;;;;7401237;19;19919;-73
2023/10/31 01:36:12;;;;;;;1.67;0.30;;;14.70;72.40;;;;;;7399640;19;19915;-71
2023/10/31 01:38:38;;;;;;;3.53;0.50;;;14.70;72.00;;;;;;7404427;19;19918;-71
2023/10/31 01:41:04;;;;;;;1.55;0.50;;;14.60;71.70;;;;;;7406208;19;19935;-72
2023/10/31 01:43:37;;;;;;;2.72;0.60;;;14.60;72.10;;;;;;7405938;19;19919;-72
2023/10/31 01:46:04;;;;;;;2.88;0.50;;;14.70;72.00;;;;;;7406407;19;19915;-72
2023/10/31 01:48:31;;;;;;;0.95;0.28;;;14.70;69.80;;;;;;7406812;19;19918;-72
2023/10/31 01:50:59;;;;;;;1.33;0.30;;;14.90;68.70;;;;;;7406277;19;19942;-72
2023/10/31 01:53:27;;;;;;;1.10;0.20;;;14.80;68.50;;;;;;7405072;19;19927;-72
2023/10/31 01:55:55;;;;;;;1.58;0.40;;;14.90;68.90;;;;;;7407770;19;19926;-72
2023/10/31 01:58:28;;;;;;;2.40;0.30;;;14.80;69.50;;;;;;7405273;19;20334;-71
2023/10/31 02:00:55;;;;;;;2.78;0.40;;;14.80;70.30;;;;;;7404003;19;20359;-71
2023/10/31 02:03:21;;;;;;;1.73;0.50;;;14.70;70.60;;;;;;7403501;19;20449;-71
2023/10/31 02:05:47;;;;;;;0.82;0.28;;;14.70;71.10;;;;;;7406278;19;19981;-71
2023/10/31 02:08:13;;;;;;;2.58;0.40;;;14.80;69.20;;;;;;7399073;19;19911;-72
2023/10/31 02:10:40;;;;;;;2.17;0.47;;;14.80;68.40;;;;;;7404750;19;19928;-71
2023/10/31 02:13:13;;;;;;;1.88;0.60;;;14.80;68.40;;;;;;7403140;19;19927;-72
2023/10/31 02:15:39;;;;;;;;;;;14.80;68.90;;;;;;7409416;19;19914;-71
2023/10/31 02:18:04;;;;;;;3.42;0.50;;;14.70;68.90;;;;;;7403165;19;19914;-71
2023/10/31 02:20:30;;;;;;;2.08;0.30;;;14.70;69.00;;;;;;7402218;19;19954;-71
2023/10/31 02:22:56;;;;;;;1.75;0.40;;;14.70;68.80;;;;;;7401176;19;19982;-71
2023/10/31 02:25:22;;;;;;;1.42;0.40;;;14.70;69.40;;;;;;7399886;19;19911;-71
2023/10/31 02:27:47;;;;;;;1.80;0.70;;;14.70;69.20;;;;;;7405661;19;20002;-71
2023/10/31 02:30:14;;;;;;;1.13;0.30;;;14.70;69.10;;;;;;7406419;19;20256;-72
2023/10/31 02:32:40;;;;;;;3.03;0.47;;;14.70;69.10;;;;;;7406255;19;19935;-71
2023/10/31 02:35:07;;;;;;;1.48;0.50;;;14.60;69.00;;;;;;7401277;19;20545;-71
2023/10/31 02:37:32;;;;;;;2.05;0.45;;;14.60;68.90;;;;;;7402626;19;20313;-71
2023/10/31 02:39:59;;;;;;;2.13;0.40;;;14.70;68.10;;;;;;7403675;19;19957;-72
2023/10/31 02:42:26;;;;;;;0.90;0.30;;;14.60;68.50;;;;;;7403236;19;19922;-72
2023/10/31 02:44:53;;;;;;;1.67;0.40;;;14.70;68.00;;;;;;7408029;19;19935;-71
2023/10/31 02:47:19;;;;;;;2.30;0.40;;;14.50;68.90;;;;;;7405536;19;20348;-71
2023/10/31 02:49:45;;;;;;;1.38;0.32;;;14.60;69.10;;;;;;7401505;19;19927;-72
2023/10/31 02:52:11;;;;;;;2.47;0.30;;;14.50;69.40;;;;;;7404271;19;19922;-71
2023/10/31 02:54:37;;;;;;;4.35;0.35;;;14.40;70.60;;;;;;7401726;19;20269;-71
2023/10/31 02:57:03;;;;;;;1.70;0.40;;;14.40;70.70;;;;;;7402720;19;19917;-73
2023/10/31 02:59:29;;;;;;;2.75;0.30;;;14.40;70.30;;;;;;7406362;19;19911;-72
2023/10/31 03:01:57;;;;;;;3.40;0.32;;;14.30;70.80;;;;;;7403695;19;20697;-71
2023/10/31 03:04:23;;;;;;;1.75;0.35;;;14.40;70.80;;;;;;7403112;19;19930;-72
2023/10/31 03:06:49;;;;;;;1.08;0.25;;;14.30;71.00;;;;;;7405974;19;19942;-71
2023/10/31 03:09:15;;;;;;;2.35;0.28;;;14.30;70.80;;;;;;7402750;19;19918;-71
2023/10/31 03:11:41;;;;;;;1.42;0.30;;;14.30;70.90;;;;;;7403495;19;20618;-71
2023/10/31 03:14:06;;;;;;;1.77;0.57;;;14.30;71.10;;;;;;7402718;19;19918;-71
2023/10/31 03:16:32;;;;;;;1.27;0.40;;;14.30;71.10;;;;;;7402523;19;20634;-71
2023/10/31 03:18:58;;;;;;;1.85;0.47;;;14.20;72.00;;;;;;7403735;19;20362;-71
2023/10/31 03:21:25;;;;;;;2.45;0.40;;;14.20;72.20;;;;;;7400898;19;19934;-71
2023/10/31 03:23:52;;;;;;;3.78;0.60;;;14.10;72.30;;;;;;7405453;19;19917;-71
2023/10/31 03:26:19;;;;;;;1.98;0.43;;;14.20;71.40;;;;;;7403173;19;19928;-71
2023/10/31 03:28:45;;;;;;;2.33;0.50;;;14.20;71.70;;;;;;7401612;19;19999;-71
2023/10/31 03:31:12;;;;;;;1.38;0.30;;;14.20;71.50;;;;;;7394901;19;19919;-70
2023/10/31 03:33:38;;;;;;;;;;;14.30;70.50;;;;;;7403166;19;19927;-70
2023/10/31 03:36:05;;;;;;;1.83;0.20;;;14.30;70.60;;;;;;7403112;19;19914;-71
2023/10/31 03:38:37;;;;;;;1.48;0.30;;;14.20;70.90;;;;;;7401414;19;20320;-71
2023/10/31 03:41:03;;;;;;;1.35;0.22;;;14.20;69.90;;;;;;7403459;19;19922;-71
2023/10/31 03:43:29;;;;;;;1.23;0.30;;;14.20;70.00;;;;;;7404778;19;20405;-71
2023/10/31 03:45:55;;;;;;;1.92;0.30;;;14.20;70.20;;;;;;7402166;19;19922;-72
2023/10/31 03:48:21;;;;;;;1.98;0.30;;;14.30;69.60;;;;;;7404036;19;19950;-71
2023/10/31 03:50:46;;;;;;;1.77;0.40;;;14.30;69.50;;;;;;7402982;19;19911;-70
2023/10/31 03:53:12;;;;;;;1.48;0.30;;;14.30;69.30;;;;;;7400814;19;19986;-69
2023/10/31 03:55:38;;;;;;;3.03;0.43;;;14.40;68.40;;;;;;7403535;19;20338;-71
2023/10/31 03:58:07;;;;;;;1.85;0.40;;;14.40;68.10;;;;;;7401401;19;19930;-71
2023/10/31 04:00:33;;;;;;;2.45;0.50;;;14.30;68.80;;;;;;7403594;19;19974;-71
2023/10/31 04:02:59;;;;;;;1.58;0.35;;;14.30;69.00;;;;;;7403605;19;20634;-71
2023/10/31 04:05:25;;;;;;;2.53;0.30;;;14.20;69.60;;;;;;7401864;19;20358;-70
2023/10/31 04:07:50;;;;;;;0.98;0.30;;;14.20;69.40;;;;;;7402122;19;19935;-72
2023/10/31 04:10:18;;;;;;;2.13;0.40;;;14.20;69.70;;;;;;7402089;19;20616;-71
2023/10/31 04:12:44;;;;;;;1.75;0.20;;;14.10;70.30;;;;;;7403321;19;19918;-71
2023/10/31 04:15:11;;;;;;;1.63;0.55;;;14.00;71.30;;;;;;7400106;19;19937;-71
2023/10/31 04:17:38;;;;;;;1.48;0.28;;;13.90;72.90;;;;;;7400687;19;19926;-71
2023/10/31 04:20:04;;;;;;;1.08;0.30;;;13.90;73.10;;;;;;7401899;19;19919;-71
2023/10/31 04:22:30;;;;;;;2.38;0.40;;;13.90;72.90;;;;;;7402603;19;19919;-71
2023/10/31 04:24:56;;;;;;;2.00;0.20;;;13.90;73.40;;;;;;7400244;19;19959;-71
2023/10/31 04:27:22;;;;;;;2.65;0.50;;;13.90;73.90;;;;;;7400642;19;19922;-71
2023/10/31 04:29:48;;;;;;;1.23;0.40;;;13.80;74.80;;;;;;7403523;19;19922;-71
2023/10/31 04:32:14;;;;;;;1.45;0.30;;;13.80;74.90;;;;;;7400682;19;19915;-72
2023/10/31 04:34:40;;;;;;;2.50;0.40;;;13.80;75.70;;;;;;7399966;19;19930;-71
2023/10/31 04:37:06;;;;;;;2.42;0.68;;;13.60;76.80;;;;;;7399122;19;19933;-71
2023/10/31 04:39:31;;;;;;;1.02;0.28;;;13.60;77.50;;;;;;7380339;19;19930;-70
2023/10/31 04:41:57;;;;;;;1.13;0.30;;;13.50;78.30;;;;;;7399662;19;19926;-71
2023/10/31 04:44:23;;;;;;;0.70;0.30;;;13.50;79.10;;;;;;7398008;19;19922;-70
2023/10/31 04:46:49;;;;;;;1.58;0.45;;;13.40;80.20;;;;;;7403214;19;19998;-71
2023/10/31 04:49:17;;;;;;;1.40;0.30;;;13.30;80.80;;;;;;7399762;19;19911;-71
2023/10/31 04:51:43;;;;;;;0.65;0.20;;;13.40;80.50;;;;;;7403044;19;19915;-71
2023/10/31 04:54:09;;;;;;;0.77;0.28;;;13.40;80.30;;;;;;7397563;19;19918;-71
2023/10/31 04:56:36;;;;;;;4.68;0.43;;;13.30;80.70;;;;;;7399131;19;19918;-71
2023/10/31 04:59:01;;;;;;;1.80;0.43;;;13.30;80.60;;;;;;7400701;19;19982;-70
2023/10/31 05:01:27;;;;;;;1.30;0.28;;;13.40;80.80;;;;;;7397757;19;19922;-71
2023/10/31 05:03:53;;;;;;;2.35;0.38;;;13.40;80.00;;;;;;7402318;19;20521;-70
2023/10/31 05:06:20;;;;;;;1.05;0.32;;;13.30;80.70;;;;;;7399711;19;20297;-71
2023/10/31 05:08:46;;;;;;;0.88;0.22;;;13.30;80.80;;;;;;7401081;19;19922;-70
2023/10/31 05:11:12;;;;;;;1.30;0.28;;;13.40;80.10;;;;;;7396961;19;19915;-70
2023/10/31 05:13:41;;;;;;;1.50;0.35;;;13.40;80.50;;;;;;7396506;19;19922;-71
2023/10/31 05:16:08;;;;;;;2.00;0.30;;;13.30;81.60;;;;;;7400081;19;19923;-71
2023/10/31 05:18:36;;;;;;;;;;;13.20;81.40;;;;;;7404099;19;19984;-71
2023/10/31 05:21:02;;;;;;;1.48;0.20;;;13.20;81.10;;;;;;7402715;19;19918;-71
2023/10/31 05:23:27;;;;;;;1.58;0.28;;;13.20;81.30;;;;;;7401020;19;20732;-71
2023/10/31 05:25:53;;;;;;;1.42;0.35;;;13.20;81.60;;;;;;7401076;19;19920;-71
2023/10/31 05:28:19;;;;;;;3.00;0.35;;;13.40;79.70;;;;;;7398045;19;19939;-71
2023/10/31 05:30:44;;;;;;;2.10;0.52;;;13.40;79.20;;;;;;7402803;19;19923;-72
2023/10/31 05:33:10;;;;;;;1.50;0.38;;;13.40;79.20;;;;;;7400665;19;19930;-71
2023/10/31 05:35:36;;;;;;;1.95;0.30;;;13.40;78.40;;;;;;7399998;19;19926;-71
2023/10/31 05:38:02;;;;;;;2.22;0.50;;;13.40;78.00;;;;;;7399691;19;19929;-71
2023/10/31 05:40:29;;;;;;;1.35;0.45;;;13.40;78.10;;;;;;7400135;19;19945;-72
2023/10/31 05:42:55;;;;;;;2.58;0.38;;;13.40;78.70;;;;;;7401284;19;19933;-71
2023/10/31 05:45:21;;;;;;;1.58;0.32;;;13.50;77.50;;;;;;7401099;19;19955;-71
2023/10/31 05:47:46;;;;;;;1.85;0.40;;;13.40;77.70;;;;;;7400337;19;19982;-70
2023/10/31 05:50:12;;;;;;;1.48;0.38;;;13.40;77.80;;;;;;7398440;19;19925;-71
2023/10/31 05:52:38;;;;;;;2.53;0.52;;;13.40;77.50;;;;;;7401643;19;19914;-71
2023/10/31 05:55:04;;;;;;;2.15;0.40;;;13.40;78.10;;;;;;7397330;19;19929;-72
2023/10/31 05:57:30;;;;;;;1.10;0.30;;;13.30;78.60;;;;;;7401914;19;19948;-72
2023/10/31 05:59:55;;;;;;;1.35;0.38;;;13.20;78.70;;;;;;7399313;19;20384;-71
2023/10/31 06:02:21;;;;;;;1.75;0.30;;;13.20;80.00;;;;;;7399497;19;19946;-71
2023/10/31 06:04:47;;;;;;;1.60;0.40;;;13.30;78.90;;;;;;7400741;19;20682;-71
2023/10/31 06:07:14;;;;;;;1.95;0.50;;;13.30;78.70;;;;;;7397651;19;19917;-70
2023/10/31 06:09:40;;;;;;;1.98;0.50;;;13.30;78.30;;;;;;7400776;19;19926;-72
2023/10/31 06:12:06;;;;;;;4.10;0.40;;;13.20;79.00;;;;;;7399362;19;19918;-73
2023/10/31 06:14:32;;;;;;;1.58;0.30;;;13.20;79.40;;;;;;7378393;19;19914;-72
2023/10/31 06:16:59;;;;;;;1.73;0.40;;;13.10;79.60;;;;;;7396460;19;19919;-71
2023/10/31 06:19:25;;;;;;;3.38;0.50;;;13.20;79.70;;;;;;7394128;19;19911;-72
2023/10/31 06:21:50;;;;;;;2.83;0.65;;;13.20;79.40;;;;;;7401343;19;20340;-72
2023/10/31 06:24:16;;;;;;;0.63;0.30;;;13.20;78.80;;;;;;7401808;19;20296;-71
2023/10/31 06:26:42;;;;;;;2.83;0.50;;;13.20;78.30;;;;;;7405336;19;19918;-72
2023/10/31 06:29:08;;;;;;;1.60;0.32;;;13.20;78.70;;;;;;7405195;19;20628;-72
2023/10/31 06:31:33;;;;;;;2.53;0.40;;;13.20;79.20;;;;;;7406809;19;19933;-70
2023/10/31 06:33:59;;;;;;;2.05;0.52;;;13.10;79.50;;;;;;7407487;19;19927;-71
2023/10/31 06:36:25;;;;;;;2.15;0.80;;;13.10;80.40;;;;;;7404851;19;19926;-72
2023/10/31 06:38:51;;;;;;;2.50;0.55;;;13.00;80.90;;;;;;7406619;19;19918;-72
2023/10/31 06:41:16;;;;;;;2.47;0.40;;;13.00;80.90;;;;;;7402095;19;20328;-71
2023/10/31 06:43:42;;;;;;;1.52;0.45;;;13.20;78.50;;;;;;7403980;19;19915;-71
2023/10/31 06:46:09;;;;;;;3.17;0.60;;;13.40;77.50;;;;;;7406361;19;19958;-71
2023/10/31 06:48:34;;;;;;;2.28;0.50;;;13.40;77.40;;;;;;7407781;19;19907;-70
2023/10/31 06:51:00;;;;;;;6.20;0.38;;;13.40;76.50;;;;;;7404640;19;19918;-71
2023/10/31 06:53:26;;;;;;;1.30;0.38;;;13.60;76.20;;;;;;7405612;19;19918;-71
2023/10/31 06:55:52;;;;;;;2.85;0.52;;;13.60;75.10;;;;;;7404864;19;19945;-71
2023/10/31 06:58:17;;;;;;;3.03;0.60;;;13.60;76.10;;;;;;7403365;19;19910;-71
2023/10/31 07:00:49;;;;;;;1.77;0.40;;;13.60;76.20;;;;;;7407192;19;19919;-74
2023/10/31 07:03:16;;;;;;;3.17;0.50;;;13.60;76.20;;;;;;7403338;19;19948;-72
2023/10/31 07:05:42;;;;;;;2.28;0.60;;;13.60;75.50;;;;;;7405079;19;19914;-72
2023/10/31 07:08:08;;;;;;;2.20;0.40;;;13.70;74.50;;;;;;7405203;19;19947;-72
2023/10/31 07:10:33;;;;;;;1.48;0.32;;;13.70;74.30;;;;;;7404689;19;19919;-71
2023/10/31 07:12:59;;;;;;;1.73;0.40;;;13.80;74.30;;;;;;7406523;19;19933;-71
2023/10/31 07:15:26;;;;;;;2.00;0.40;;;13.80;73.80;;;;;;7404734;19;19911;-70
2023/10/31 07:17:52;;;;;;;1.92;0.35;;;13.90;72.40;;;;;;7408092;19;19923;-71
2023/10/31 07:20:17;;;;;;;1.05;0.35;;;14.00;71.40;;;;;;7398032;19;19907;-71
2023/10/31 07:22:43;;;;;;;2.45;0.52;;;13.90;71.70;;;;;;7402966;19;19914;-71
2023/10/31 07:25:09;;;;;;;2.10;0.45;;;13.90;72.70;;;;;;7403283;19;20450;-72
2023/10/31 07:27:35;;;;;;;1.60;0.40;;;14.00;72.90;;;;;;7406971;19;20359;-71
2023/10/31 07:30:03;;;;;;;1.77;0.60;;;14.00;71.40;;;;;;7403707;19;19919;-70
2023/10/31 07:32:29;;;;;;;3.03;0.52;;;14.00;70.50;;;;;;7401307;19;19954;-70
2023/10/31 07:34:55;;;;;;;2.17;0.50;;;14.10;70.30;;;;;;7399890;19;20187;-70
2023/10/31 07:37:21;;;;;;;2.38;0.60;;;14.20;70.20;;;;;;7401130;19;19915;-71
2023/10/31 07:39:47;;;;;;;2.00;0.40;;;14.30;69.10;;;;;;7405449;19;19926;-70
2023/10/31 07:42:13;;;;;;;2.58;0.47;;;14.30;68.10;;;;;;7403167;19;20002;-71
2023/10/31 07:44:38;;;;;;;2.38;0.50;;;14.40;67.10;;;;;;7403183;19;19931;-71
2023/10/31 07:47:05;;;;;;;1.27;0.38;;;14.50;65.50;;;;;;7402968;19;19939;-70
2023/10/31 07:49:30;;;;;;;0.90;0.30;;;14.60;63.60;;;;;;7401684;19;19931;-71
2023/10/31 07:51:56;;;;;;;1.58;0.40;;;14.70;63.20;;;;;;7404860;19;19919;-71
2023/10/31 07:54:25;;;;;;;3.13;0.50;;;14.80;62.10;;;;;;7399984;19;19935;-71
2023/10/31 07:56:51;;;;;;;1.88;0.75;;;14.90;61.50;;;;;;7383309;19;19979;-71
2023/10/31 07:59:16;;;;;;;1.75;0.52;;;15.00;61.10;;;;;;7401479;19;20323;-71
2023/10/31 08:01:42;;;;;;;1.80;0.50;;;15.00;60.40;;;;;;7401704;19;19919;-70
2023/10/31 08:04:08;;;;;;;2.25;0.75;;;15.10;61.00;;;;;;7398123;19;19917;-72
2023/10/31 08:06:34;;;;;;;4.10;0.70;;;15.30;60.20;;;;;;7400803;19;19919;-71
2023/10/31 08:09:00;;;;;;;2.80;0.85;;;16.50;57.30;;;;;;7403526;19;19919;-71
2023/10/31 08:11:25;;;;;;;2.30;0.43;;;17.70;50.20;;;;;;7402574;19;19914;-71
2023/10/31 08:13:53;;;;;;;3.67;0.90;;;18.20;44.90;;;;;;7400464;19;19927;-70
2023/10/31 08:16:19;;;;;;;5.00;0.82;;;18.90;42.40;;;;;;7399326;19;19936;-71
2023/10/31 08:18:45;;;;;;;;;;;19.60;39.80;;;;;;7404320;19;19930;-71
2023/10/31 08:21:11;;;;;;;3.30;0.77;;;19.60;38.00;;;;;;7394028;19;19923;-70
2023/10/31 08:23:37;;;;;;;5.80;1.35;;;20.00;36.70;;;;;;7398224;19;19922;-72
2023/10/31 08:26:03;;;;;;;2.88;0.80;;;20.40;35.10;;;;;;7394633;19;19918;-72
2023/10/31 08:28:30;;;;;;;4.05;1.10;;;21.40;33.20;;;;;;7392926;19;19936;-73
2023/10/31 08:30:56;;;;;;;3.90;1.35;;;21.60;30.00;;;;;;7373901;19;19914;-71
2023/10/31 08:33:22;;;;;;;3.53;1.02;;;21.90;30.00;;;;;;7396296;19;20055;-72
2023/10/31 08:35:48;;;;;;;3.42;1.02;;;22.30;29.00;;;;;;7387442;19;19922;-72
2023/10/31 08:38:13;;;;;;;4.00;1.00;;;21.50;28.40;;;;;;7393607;19;19911;-72
2023/10/31 08:40:40;;;;;;;4.10;1.00;;;20.80;30.20;;;;;;7403479;19;19944;-73
2023/10/31 08:43:06;;;;;;;5.25;1.27;;;20.90;29.80;;;;;;7385013;19;19933;-72
2023/10/31 08:45:33;;;;;;;8.73;1.40;;;20.80;29.80;;;;;;7387652;19;19938;-72
2023/10/31 08:48:00;;;;;;;5.25;1.15;;;20.80;31.50;;;;;;7401414;19;19915;-71
2023/10/31 08:50:26;;;;;;;9.25;3.10;;;21.20;29.30;;;;;;7395133;19;19914;-71
2023/10/31 08:52:52;;;;;;;5.60;2.50;;;21.20;29.40;;;;;;7394037;19;19978;-71
2023/10/31 08:55:18;;;;;;;4.10;0.80;;;21.00;29.10;;;;;;7393483;19;20323;-71
2023/10/31 08:57:43;;;;;;;2.42;0.60;;;20.40;30.20;;;;;;7395636;19;19961;-71
2023/10/31 09:00:10;;;;;;;4.22;0.95;;;19.70;32.10;;;;;;7388496;19;20383;-71
2023/10/31 09:02:35;;;;;;;3.75;1.23;;;18.80;35.00;;;;;;7400118;19;20339;-71
2023/10/31 09:05:01;;;;;;;2.13;0.47;;;18.40;36.70;;;;;;7394673;19;19939;-71
2023/10/31 09:07:27;;;;;;;1.88;0.63;;;18.00;38.60;;;;;;7393803;19;19922;-72
2023/10/31 09:09:53;;;;;;;2.30;0.60;;;17.80;40.10;;;;;;7392961;19;19926;-71
2023/10/31 09:12:19;;;;;;;5.05;0.80;;;17.60;41.70;;;;;;7389211;19;19919;-71
2023/10/31 09:14:45;;;;;;;2.83;0.77;;;17.80;41.50;;;;;;7387669;19;19918;-71
2023/10/31 09:17:11;;;;;;;2.63;0.75;;;17.60;41.90;;;;;;7383912;19;19978;-71
2023/10/31 09:19:36;;;;;;;2.33;0.55;;;17.70;41.70;;;;;;7389139;19;19952;-71
2023/10/31 09:22:02;;;;;;;4.22;0.90;;;17.60;42.40;;;;;;7398149;19;19926;-71
2023/10/31 09:24:28;;;;;;;2.67;1.05;;;17.80;42.00;;;;;;7392279;19;19921;-72
2023/10/31 09:26:54;;;;;;;2.92;0.70;;;17.80;42.50;;;;;;7402458;19;20650;-71
2023/10/31 09:29:20;;;;;;;3.22;0.85;;;17.80;42.20;;;;;;7394325;19;20342;-71
2023/10/31 09:31:47;;;;;;;3.40;0.93;;;18.10;41.00;;;;;;7393251;19;19915;-71
2023/10/31 09:34:13;;;;;;;2.42;0.75;;;18.50;40.40;;;;;;7390576;19;19943;-70
2023/10/31 09:36:40;;;;;;;3.78;1.15;;;18.80;38.30;;;;;;7383554;19;19934;-72
2023/10/31 09:39:06;;;;;;;1.95;0.63;;;18.90;37.90;;;;;;7394704;19;20343;-71
2023/10/31 09:41:34;;;;;;;4.80;1.00;;;18.90;36.90;;;;;;7396441;19;19921;-72
2023/10/31 09:44:00;;;;;;;3.05;0.73;;;19.00;35.20;;;;;;7395349;19;19915;-72
2023/10/31 09:46:28;;;;;;;4.18;0.93;;;19.00;35.90;;;;;;7397922;19;19928;-73
2023/10/31 09:48:55;;;;;;;2.67;0.82;;;19.40;34.40;;;;;;7391242;19;19949;-72
2023/10/31 09:51:22;;;;;;;3.00;0.73;;;19.30;34.00;;;;;;7392326;19;19919;-72
2023/10/31 09:53:48;;;;;;;2.10;0.70;;;20.00;32.20;;;;;;7398074;19;20806;-72
2023/10/31 09:56:15;;;;;;;2.95;0.63;;;20.00;31.80;;;;;;7390223;19;20269;-72
2023/10/31 09:58:41;;;;;;;5.00;1.25;;;20.30;32.00;;;;;;7398680;19;20258;-72
2023/10/31 10:01:07;;;;;;;1.83;0.90;;;20.30;31.00;;;;;;7401499;19;19952;-71
2023/10/31 10:03:34;;;;;;;2.30;0.77;;;20.00;31.40;;;;;;7400594;19;20328;-72
2023/10/31 10:05:59;;;;;;;;;;;20.30;30.30;;;;;;7404235;19;19929;-72
2023/10/31 10:08:25;;;;;;;2.53;0.73;;;20.90;29.50;;;;;;7405532;19;19914;-72
2023/10/31 10:10:52;;;;;;;3.35;0.82;;;21.40;28.40;;;;;;7402284;19;20421;-72
2023/10/31 10:13:18;;;;;;;;;;;20.90;28.20;;;;;;7402236;19;19925;-71
2023/10/31 10:15:54;;;;;;;1.67;0.65;;;20.10;28.30;;;;;;7398060;19;20243;-72
2023/10/31 10:18:35;;;;;;;1.50;0.80;;;20.40;27.60;;;;;;7399298;19;19952;-72
2023/10/31 10:21:02;;;;;;;3.92;0.77;;;20.80;28.00;;;;;;7406946;19;19919;-73
2023/10/31 10:23:29;;;;;;;4.63;0.90;;;21.10;27.00;;;;;;7396077;19;19921;-74
2023/10/31 10:25:57;;;;;;;3.50;0.63;;;21.20;26.20;;;;;;7396321;19;19947;-72
2023/10/31 10:28:26;;;;;;;4.05;0.98;;;20.90;26.90;;;;;;7403836;19;19914;-73
2023/10/31 10:30:54;;;;;;;2.45;0.65;;;21.20;26.00;;;;;;7403537;19;19919;-72
2023/10/31 10:33:21;;;;;;;6.40;1.27;;;21.30;26.30;;;;;;7402888;19;19934;-72
2023/10/31 10:35:47;;;;;;;2.67;0.80;;;21.80;25.20;;;;;;7405457;19;19970;-71
2023/10/31 10:38:17;;;;;;;2.05;0.70;;;21.60;24.20;;;;;;7399565;19;19938;-72
2023/10/31 10:40:48;;;;;;;6.32;1.33;;;21.50;24.90;;;;;;7404160;19;19978;-72
2023/10/31 10:43:22;;;;;;;4.07;1.55;;;21.40;24.00;;;;;;7403482;19;19915;-73
2023/10/31 10:45:57;;;;;;;3.58;1.00;;;21.60;24.40;;;;;;7405810;19;19924;-72
2023/10/31 10:48:24;;;;;;;3.97;1.00;;;21.90;24.00;;;;;;7401497;19;19942;-71
2023/10/31 10:51:24;;;;;;;4.13;0.90;;;21.80;24.20;;;;;;7404586;19;19945;-70
2023/10/31 10:53:57;;;;;;;5.93;1.45;;;22.00;24.20;;;;;;7402117;19;19923;-71
2023/10/31 10:56:32;;;;;;;4.38;1.40;;;22.60;24.00;;;;;;7403899;19;19947;-71
2023/10/31 10:59:19;;;;;;;3.03;1.13;;;22.80;23.60;;;;;;7406674;19;19911;-71
2023/10/31 11:01:52;;;;;;;7.43;1.73;;;23.00;22.80;;;;;;7393371;19;19926;-71
2023/10/31 11:04:19;;;;;;;3.75;1.13;;;22.80;22.30;;;;;;7398627;19;19991;-71
2023/10/31 11:06:45;;;;;;;2.83;1.00;;;22.50;22.80;;;;;;7399057;19;19919;-71
2023/10/31 11:09:13;;;;;;;3.75;1.20;;;22.50;23.50;;;;;;7393398;19;19918;-72
2023/10/31 11:11:40;;;;;;;3.70;1.23;;;22.70;23.00;;;;;;7401624;19;20284;-72
2023/10/31 11:14:07;;;;;;;4.28;1.88;;;22.90;23.40;;;;;;7391510;19;20561;-73
2023/10/31 11:16:51;;;;;;;3.42;1.20;;;22.80;22.90;;;;;;7398097;19;19943;-73
2023/10/31 11:19:17;;;;;;;;;;;23.50;22.60;;;;;;7402788;19;19925;-73
2023/10/31 11:21:57;;;;;;;5.05;1.30;;;23.50;21.40;;;;;;7397986;19;19974;-72
2023/10/31 11:24:25;;;;;;;3.65;1.10;;;23.50;21.70;;;;;;7400453;19;19971;-72
2023/10/31 11:26:52;;;;;;;5.82;1.08;;;24.00;20.80;;;;;;7388746;19;19963;-72
2023/10/31 11:29:18;;;;;;;3.83;1.15;;;24.30;20.20;;;;;;7398156;19;19943;-71
2023/10/31 11:31:44;;;;;;;4.75;0.85;;;24.30;19.60;;;;;;7400591;19;19911;-72
2023/10/31 11:34:10;;;;;;;3.78;1.15;;;24.00;19.90;;;;;;7393889;19;19906;-72
2023/10/31 11:36:36;;;;;;;3.65;1.42;;;24.20;19.80;;;;;;7392752;19;19913;-71
2023/10/31 11:39:16;;;;;;;3.00;1.00;;;24.70;19.40;;;;;;7394440;19;20676;-72
2023/10/31 11:41:50;;;;;;;4.63;1.20;;;25.00;18.90;;;;;;7401832;19;19914;-73
2023/10/31 11:44:17;;;;;;;3.40;1.08;;;24.60;18.20;;;;;;7402451;19;19918;-72
2023/10/31 11:46:43;;;;;;;3.78;1.13;;;24.60;18.10;;;;;;7397250;19;19931;-71
2023/10/31 11:49:09;;;;;;;3.55;1.17;;;24.40;18.50;;;;;;7391636;19;19923;-72
2023/10/31 11:51:35;;;;;;;6.03;1.05;;;24.00;18.80;;;;;;7397732;19;19939;-73
2023/10/31 11:54:02;;;;;;;3.08;1.30;;;24.40;18.10;;;;;;7393279;19;20352;-72
2023/10/31 11:56:28;;;;;;;4.18;1.33;;;24.70;17.20;;;;;;7395958;19;19947;-72
2023/10/31 11:58:57;;;;;;;4.40;1.40;;;25.30;16.70;;;;;;7404921;19;20233;-72
2023/10/31 12:01:23;;;;;;;3.97;1.27;;;25.40;16.10;;;;;;7390376;19;19992;-73
2023/10/31 12:03:49;;;;;;;4.25;1.38;;;25.40;16.40;;;;;;7396548;19;19906;-72
2023/10/31 12:06:15;;;;;;;;;;;25.30;15.70;;;;;;7393583;19;19918;-72
2023/10/31 12:08:42;;;;;;;4.80;1.13;;;25.40;15.70;;;;;;7394395;19;19917;-71
2023/10/31 12:11:17;;;;;;;3.05;1.08;;;25.60;15.60;;;;;;7397980;19;20264;-72
2023/10/31 12:14:01;;;;;;;8.63;4.03;;;24.10;16.20;;;;;;7403318;19;20319;-73
2023/10/31 12:16:29;;;;;;;3.65;1.30;;;24.50;17.50;;;;;;7400546;19;19982;-72
2023/10/31 12:19:05;;;;;;;3.83;1.70;;;24.90;17.00;;;;;;7401026;19;19918;-73
2023/10/31 12:21:47;;;;;;;3.65;0.95;;;24.00;17.40;;;;;;7357764;19;20340;-71
2023/10/31 12:24:15;;;;;;;2.80;0.95;;;23.00;18.70;;;;;;7399206;19;19930;-73
2023/10/31 12:26:41;;;;;;;3.70;0.93;;;23.30;19.30;;;;;;7400840;19;20255;-72
2023/10/31 12:29:15;;;;;;;6.93;1.25;;;23.20;19.60;;;;;;7390079;19;20355;-72
2023/10/31 12:31:52;;;;;;;6.22;1.45;;;22.60;20.50;;;;;;7395273;19;19918;-71
2023/10/31 12:34:27;;;;;;;3.97;1.25;;;23.00;21.00;;;;;;7392918;19;19906;-72
2023/10/31 12:36:54;;;;;;;6.60;1.42;;;22.60;20.60;;;;;;7396399;19;19919;-72
2023/10/31 12:39:22;;;;;;;3.85;0.93;;;22.40;21.20;;;;;;7397941;19;19935;-72
2023/10/31 12:41:49;;;;;;;4.47;1.00;;;22.60;20.90;;;;;;7392989;19;19911;-74
2023/10/31 12:44:24;;;;;;;6.35;1.10;;;22.40;21.40;;;;;;7389231;19;19922;-71
2023/10/31 12:46:51;;;;;;;6.70;1.35;;;22.80;21.30;;;;;;7396656;19;19922;-72